logo
Rechercher aéroport 
image banner adimage banner adimage banner ad
image banner ad

MGRF - Monterrico

Situé à Monterrico, Guatemala

ICAO - , IATA -

Données fournies par Airmate  

Information générale

Coordonnées: N13°53'41" W90°29'5"
Élévation : 20 feet MSL.
Variation magnétique : 0° East
Voir autres Aéroports à San Marcos

Données opérationnelles

Special qualification required
Heure actuelle UTC:
Heure actuelle locale:
Météo à : MGGT - La Aurora ( 77 km )
METAR: MGGT 231900Z 35008KT 9999 SCT020 BKN200 27/18 Q1022 A3018
TAF: MGGT 231700Z 2318/2418 02010KT 9999 SCT018 TX27/2320Z TN16/2412Z TEMPO 2321/2324 8000 VCTSRA FEW025CB BECMG 2402/2404 03008KT BKN016 BECMG 2414/2416 0216KT FEW018
Voir NOTAMs / SUP AIP / TFR affectant cet aéroport [VIEW]
Fréquences de communication: [VIEW]

Pistes:

Identifiant RWYQFULongueur (ft)Largeur (ft)SurfaceLDA (ft)
10110°2609130GRAS
28290°2609130GRAS

Coordonnées de l'aéroport

Adresse: Monterrico Guatemala

Vue satellite de MGRF